createdAt,value
2018-05-18T00:01:30.607Z,10.30
2018-05-18T00:04:13.546Z,10.30
2018-05-18T00:06:49.163Z,10.30
2018-05-18T00:09:24.032Z,10.30
2018-05-18T00:11:59.700Z,10.30
2018-05-18T00:14:35.628Z,10.30
2018-05-18T00:17:16.734Z,10.30
2018-05-18T00:19:54.420Z,10.30
2018-05-18T00:22:30.275Z,10.30
2018-05-18T00:25:03.788Z,10.30
2018-05-18T00:27:37.443Z,10.30
2018-05-18T00:30:11.121Z,10.40
2018-05-18T00:32:44.766Z,10.40
2018-05-18T00:35:18.444Z,10.50
2018-05-18T00:37:52.088Z,10.60
2018-05-18T00:40:25.765Z,10.60
2018-05-18T00:42:59.408Z,10.60
2018-05-18T00:45:33.856Z,10.70
2018-05-18T00:48:07.495Z,10.70
2018-05-18T00:50:41.174Z,10.60
2018-05-18T00:53:14.816Z,10.60
2018-05-18T00:55:48.495Z,10.60
2018-05-18T00:58:22.134Z,10.60
2018-05-18T01:00:57.561Z,10.60
2018-05-18T01:03:31.212Z,10.60
2018-05-18T01:06:05.544Z,10.60
2018-05-18T01:08:40.171Z,10.60
2018-05-18T01:11:14.851Z,10.60
2018-05-18T01:13:48.499Z,10.60
2018-05-18T01:16:23.187Z,10.60
2018-05-18T01:18:56.838Z,10.60
2018-05-18T01:21:30.524Z,10.60
2018-05-18T01:24:04.178Z,10.60
2018-05-18T01:26:38.890Z,10.60
2018-05-18T01:29:14.261Z,10.50
2018-05-18T01:31:48.915Z,10.50
2018-05-18T01:34:22.560Z,10.60
2018-05-18T01:36:56.998Z,10.60
2018-05-18T01:39:31.607Z,10.50
2018-05-18T01:42:06.065Z,10.40
2018-05-18T02:02:29.605Z,10.50
2018-05-18T02:05:03.279Z,10.50
2018-05-18T02:07:37.895Z,10.50
2018-05-18T02:10:11.569Z,10.50
2018-05-18T02:12:45.224Z,10.50
2018-05-18T02:15:19.674Z,10.50
2018-05-18T02:17:53.318Z,10.50
2018-05-18T02:20:27.011Z,10.60
2018-05-18T02:23:00.657Z,10.50
2018-05-18T02:25:34.357Z,10.50
2018-05-18T02:28:08.005Z,10.50
2018-05-18T02:30:41.696Z,10.60
2018-05-18T02:33:15.366Z,10.50
2018-05-18T02:35:49.045Z,10.60
2018-05-18T02:38:23.458Z,10.50
2018-05-18T02:40:57.916Z,10.50
2018-05-18T02:43:31.551Z,10.50
2018-05-18T02:46:04.908Z,10.50
2018-05-18T02:48:38.554Z,10.50
2018-05-18T02:51:12.244Z,10.50
2018-05-18T02:53:45.895Z,10.50
2018-05-18T02:56:19.251Z,10.40
2018-05-18T02:58:52.902Z,10.40
2018-05-18T03:01:27.562Z,10.40
2018-05-18T03:04:10.229Z,10.40
2018-05-18T03:06:45.382Z,10.40
2018-05-18T03:09:19.098Z,10.40
2018-05-18T03:11:52.787Z,10.40
2018-05-18T03:14:27.392Z,10.40
2018-05-18T03:17:01.076Z,10.30
2018-05-18T03:19:35.481Z,10.40
2018-05-18T03:22:09.180Z,10.40
2018-05-18T03:24:42.820Z,10.40
2018-05-18T03:27:16.497Z,10.40
2018-05-18T03:29:50.905Z,10.40
2018-05-18T03:32:24.586Z,10.40
2018-05-18T03:34:58.237Z,10.40
2018-05-18T03:37:33.378Z,10.40
2018-05-18T03:40:07.026Z,10.50
2018-05-18T03:42:40.709Z,10.60
2018-05-18T03:45:14.584Z,10.70
2018-05-18T03:47:48.265Z,10.70
2018-05-18T03:50:22.705Z,10.70
2018-05-18T03:52:56.388Z,10.70
2018-05-18T03:55:30.802Z,10.90
2018-05-18T03:58:05.256Z,10.90
2018-05-18T04:00:38.899Z,10.90
2018-05-18T04:03:23.773Z,11.00
2018-05-18T04:06:08.505Z,11.10
2018-05-18T04:08:52.223Z,11.20
2018-05-18T04:11:25.881Z,11.30
2018-05-18T04:14:01.305Z,11.40
2018-05-18T04:16:34.951Z,11.40
2018-05-18T04:19:09.598Z,11.60
2018-05-18T04:21:44.936Z,11.70
2018-05-18T04:24:19.591Z,12.10
2018-05-18T04:26:53.239Z,12.60
2018-05-18T04:29:27.927Z,13.30
2018-05-18T04:32:01.579Z,13.80
2018-05-18T04:34:36.252Z,14.30
2018-05-18T04:37:09.895Z,14.80
2018-05-18T04:39:43.575Z,15.50
2018-05-18T04:42:17.852Z,16.10
2018-05-18T04:44:52.109Z,16.60
2018-05-18T04:47:26.317Z,17.20
2018-05-18T04:50:00.561Z,17.50
2018-05-18T04:52:35.536Z,18.40
2018-05-18T04:55:09.789Z,18.30
2018-05-18T04:57:44.956Z,18.90
2018-05-18T05:00:19.967Z,18.90
2018-05-18T05:02:54.176Z,18.90
2018-05-18T05:05:28.437Z,18.60
2018-05-18T05:08:02.700Z,17.90
2018-05-18T05:10:36.912Z,17.10
2018-05-18T05:13:11.151Z,16.70
2018-05-18T05:15:46.125Z,16.30
2018-05-18T05:18:20.413Z,16.30
2018-05-18T05:20:54.623Z,16.10
2018-05-18T05:23:29.637Z,16.40
2018-05-18T05:26:03.860Z,16.30
2018-05-18T05:28:38.881Z,16.50
2018-05-18T05:31:14.061Z,16.50
2018-05-18T05:33:49.293Z,16.70
2018-05-18T05:36:23.496Z,16.80
2018-05-18T05:38:59.481Z,16.80
2018-05-18T05:41:33.692Z,16.70
2018-05-18T05:44:07.928Z,17.10
2018-05-18T05:46:42.131Z,17.40
2018-05-18T05:49:16.388Z,17.80
2018-05-18T05:51:51.370Z,18.50
2018-05-18T05:54:25.659Z,18.50
2018-05-18T05:56:59.704Z,18.20
2018-05-18T05:59:33.951Z,17.60
2018-05-18T06:02:08.176Z,17.10
2018-05-18T06:04:44.171Z,17.20
2018-05-18T06:07:19.359Z,17.10
2018-05-18T06:09:53.599Z,17.00
2018-05-18T06:12:27.816Z,17.30
2018-05-18T06:15:02.061Z,17.40
2018-05-18T06:17:36.265Z,17.50
2018-05-18T06:20:10.533Z,17.50
2018-05-18T06:22:45.527Z,17.20
2018-05-18T06:25:19.790Z,17.20
2018-05-18T06:27:54.821Z,17.30
2018-05-18T06:30:29.843Z,17.30
2018-05-18T06:33:04.071Z,17.30
2018-05-18T06:35:39.085Z,17.00
2018-05-18T06:38:13.312Z,17.00
2018-05-18T06:40:48.327Z,16.90
2018-05-18T06:43:23.493Z,16.80
2018-05-18T06:45:58.519Z,16.60
2018-05-18T06:48:34.459Z,16.60
2018-05-18T06:51:08.713Z,16.60
2018-05-18T06:53:43.932Z,16.70
2018-05-18T06:56:18.936Z,17.10
2018-05-18T06:58:54.118Z,17.10
2018-05-18T07:01:29.322Z,17.10
2018-05-18T07:04:04.383Z,17.70
2018-05-18T07:06:38.776Z,17.70
2018-05-18T07:09:14.741Z,18.30
2018-05-18T07:11:50.743Z,18.50
2018-05-18T07:14:24.942Z,18.50
2018-05-18T07:16:59.208Z,19.00
2018-05-18T07:19:33.421Z,19.80
2018-05-18T07:22:07.667Z,20.60
2018-05-18T07:24:41.888Z,21.20
2018-05-18T07:27:16.137Z,21.30
2018-05-18T07:29:50.339Z,21.60
2018-05-18T07:32:24.581Z,22.50
2018-05-18T07:34:58.821Z,21.90
2018-05-18T07:37:33.839Z,21.90
2018-05-18T07:40:09.032Z,21.90
2018-05-18T07:42:44.048Z,21.00
2018-05-18T07:45:19.031Z,21.00
2018-05-18T07:47:54.247Z,21.00
2018-05-18T07:50:28.462Z,21.10
2018-05-18T07:53:02.716Z,20.80
2018-05-18T07:55:37.699Z,20.40
2018-05-18T07:58:11.944Z,20.40
2018-05-18T08:00:46.152Z,20.50
2018-05-18T08:03:20.400Z,20.90
2018-05-18T08:05:55.380Z,21.10
2018-05-18T08:08:29.619Z,21.10
2018-05-18T08:11:03.825Z,21.30
2018-05-18T08:13:38.073Z,21.10
2018-05-18T08:16:13.071Z,20.50
2018-05-18T08:18:47.334Z,20.50
2018-05-18T08:21:21.552Z,20.20
2018-05-18T08:23:55.812Z,19.80
2018-05-18T08:26:33.239Z,19.70
2018-05-18T08:29:18.960Z,19.90
2018-05-18T08:31:53.184Z,19.90
2018-05-18T08:34:28.416Z,20.00
2018-05-18T08:37:02.635Z,19.70
2018-05-18T08:39:36.925Z,19.60
2018-05-18T08:47:55.528Z,19.10
2018-05-18T08:53:34.935Z,19.10
2018-05-18T08:58:54.029Z,18.70
2018-05-18T09:01:30.005Z,18.90
2018-05-18T09:04:04.228Z,18.90
2018-05-18T09:06:38.477Z,19.00
2018-05-18T09:09:12.688Z,19.10
2018-05-18T09:11:46.944Z,19.10
2018-05-18T09:14:21.159Z,19.00
2018-05-18T09:16:56.401Z,18.80
2018-05-18T09:19:31.621Z,18.80
2018-05-18T09:22:05.884Z,18.70
2018-05-18T09:24:40.132Z,19.00
2018-05-18T09:27:15.365Z,19.00
2018-05-18T09:29:49.585Z,19.00
2018-05-18T09:32:25.575Z,19.40
2018-05-18T09:34:59.791Z,19.40
2018-05-18T09:37:34.058Z,19.70
2018-05-18T09:40:09.285Z,19.70
2018-05-18T09:42:44.508Z,19.60
2018-05-18T09:45:19.693Z,19.60
2018-05-18T09:47:54.736Z,19.80
2018-05-18T09:50:28.956Z,19.60
2018-05-18T09:53:03.973Z,19.80
2018-05-18T09:55:39.137Z,19.80
2018-05-18T09:58:13.404Z,20.00
2018-05-18T10:00:47.692Z,20.30
2018-05-18T10:03:22.079Z,20.70
2018-05-18T10:05:56.293Z,20.70
2018-05-18T10:08:30.544Z,20.70
2018-05-18T10:11:04.752Z,20.80
2018-05-18T10:13:40.049Z,20.70
2018-05-18T10:16:14.300Z,20.50
2018-05-18T10:18:48.512Z,20.30
2018-05-18T10:21:23.750Z,20.00
2018-05-18T10:23:57.972Z,19.80
2018-05-18T10:26:32.241Z,19.70
2018-05-18T10:29:07.245Z,19.60
2018-05-18T10:31:42.479Z,19.60
2018-05-18T10:34:16.717Z,19.70
2018-05-18T10:36:51.935Z,19.80
2018-05-18T10:39:26.161Z,19.90
2018-05-18T10:42:02.172Z,20.40
2018-05-18T10:44:37.352Z,20.40
2018-05-18T10:47:12.373Z,21.30
2018-05-18T10:49:46.599Z,21.30
2018-05-18T10:52:21.620Z,22.60
2018-05-18T10:54:56.812Z,22.50
2018-05-18T10:57:32.043Z,23.00
2018-05-18T11:00:06.270Z,23.30
2018-05-18T11:02:41.544Z,23.60
2018-05-18T11:05:15.804Z,24.10
2018-05-18T11:07:50.218Z,24.10
2018-05-18T11:10:24.439Z,24.10
2018-05-18T11:12:58.701Z,23.70
2018-05-18T11:15:32.918Z,23.60
2018-05-18T11:18:08.153Z,23.40
2018-05-18T11:20:43.378Z,23.10
2018-05-18T11:23:17.639Z,22.80
2018-05-18T11:25:52.624Z,23.10
2018-05-18T11:28:26.906Z,23.10
2018-05-18T11:31:01.128Z,23.00
2018-05-18T11:33:35.388Z,22.80
2018-05-18T11:36:10.666Z,22.60
2018-05-18T11:38:44.941Z,22.60
2018-05-18T11:41:19.163Z,22.40
2018-05-18T11:43:54.418Z,22.40
2018-05-18T11:46:29.480Z,22.10
2018-05-18T11:49:03.797Z,22.10
2018-05-18T11:54:28.426Z,22.00
2018-05-18T11:57:12.561Z,22.00
2018-05-18T11:59:46.804Z,22.30
2018-05-18T12:02:20.892Z,22.40
2018-05-18T12:04:56.152Z,22.50
2018-05-18T12:07:39.414Z,22.50
2018-05-18T12:10:13.753Z,22.50
2018-05-18T12:12:54.586Z,22.10
2018-05-18T12:15:28.845Z,22.00
2018-05-18T12:18:03.164Z,21.80
2018-05-18T12:20:38.153Z,21.70
2018-05-18T12:23:13.181Z,21.60
2018-05-18T12:25:48.160Z,21.80
2018-05-18T12:28:22.422Z,21.80
2018-05-18T12:30:56.640Z,22.00
2018-05-18T12:33:30.911Z,22.00
2018-05-18T12:36:05.132Z,22.00
2018-05-18T12:38:40.369Z,22.10
2018-05-18T12:41:14.585Z,22.20
2018-05-18T12:43:49.808Z,22.60
2018-05-18T12:46:26.734Z,22.80
2018-05-18T12:49:00.996Z,23.00
2018-05-18T12:51:36.217Z,22.90
2018-05-18T12:54:15.232Z,23.00
2018-05-18T12:59:48.559Z,23.30
2018-05-18T13:02:30.208Z,23.40
2018-05-18T13:05:09.405Z,23.10
2018-05-18T13:07:46.985Z,22.80
2018-05-18T13:10:30.415Z,22.80
2018-05-18T13:13:10.329Z,22.70
2018-05-18T13:15:46.492Z,22.70
2018-05-18T13:18:30.874Z,22.70
2018-05-18T13:21:11.772Z,22.60
2018-05-18T13:23:50.835Z,22.60
2018-05-18T13:29:11.153Z,22.20
2018-05-18T13:31:50.051Z,22.10
2018-05-18T13:34:25.669Z,21.90
2018-05-18T13:37:00.100Z,21.70
2018-05-18T13:39:35.292Z,21.50
2018-05-18T13:42:09.239Z,21.20
2018-05-18T13:44:43.558Z,21.10
2018-05-18T13:47:17.937Z,20.90
2018-05-18T13:49:52.165Z,20.90
2018-05-18T13:52:26.428Z,20.80
2018-05-18T13:55:00.643Z,20.70
2018-05-18T13:57:35.671Z,20.80
2018-05-18T14:00:09.894Z,20.70
2018-05-18T14:02:44.924Z,20.70
2018-05-18T14:05:19.927Z,20.70
2018-05-18T14:07:54.179Z,20.70
2018-05-18T14:10:29.147Z,20.60
2018-05-18T14:13:03.402Z,20.50
2018-05-18T14:15:37.612Z,20.50
2018-05-18T14:18:11.865Z,20.60
2018-05-18T14:20:46.845Z,20.30
2018-05-18T14:23:22.060Z,20.30
2018-05-18T14:25:56.279Z,20.20
2018-05-18T14:28:31.497Z,20.30
2018-05-18T14:31:05.725Z,20.20
2018-05-18T14:33:39.977Z,20.30
2018-05-18T14:36:15.161Z,20.20
2018-05-18T14:38:49.414Z,20.20
2018-05-18T14:41:23.619Z,20.20
2018-05-18T14:43:57.929Z,20.00
2018-05-18T14:46:34.021Z,19.80
2018-05-18T14:49:08.285Z,19.80
2018-05-18T14:51:43.453Z,19.80
2018-05-18T14:54:18.671Z,19.60
2018-05-18T14:56:53.870Z,19.20
2018-05-18T14:59:28.152Z,18.90
2018-05-18T15:02:03.384Z,18.80
2018-05-18T15:04:37.592Z,18.90
2018-05-18T15:07:11.853Z,19.10
2018-05-18T15:09:46.830Z,19.00
2018-05-18T15:12:22.032Z,19.00
2018-05-18T15:14:57.229Z,19.10
2018-05-18T15:17:31.478Z,19.20
2018-05-18T15:20:05.704Z,19.20
2018-05-18T15:22:39.986Z,19.30
2018-05-18T15:25:14.194Z,19.40
2018-05-18T15:27:48.442Z,19.30
2018-05-18T15:30:25.532Z,19.50
2018-05-18T15:32:59.785Z,19.30
2018-05-18T15:35:33.993Z,19.00
2018-05-18T15:38:08.244Z,18.90
2018-05-18T15:40:45.970Z,18.70
2018-05-18T15:46:06.427Z,18.70
2018-05-18T15:48:40.698Z,18.80
2018-05-18T15:51:14.900Z,18.60
2018-05-18T15:53:50.021Z,18.50
2018-05-18T15:56:25.017Z,18.40
2018-05-18T15:58:59.256Z,18.40
2018-05-18T16:01:33.489Z,18.40
2018-05-18T16:04:08.480Z,18.60
2018-05-18T16:06:42.746Z,18.60
2018-05-18T16:09:16.953Z,18.60
2018-05-18T16:11:51.964Z,18.50
2018-05-18T16:14:26.189Z,18.40
2018-05-18T16:17:02.194Z,18.50
2018-05-18T16:19:36.404Z,18.50
2018-05-18T16:22:10.650Z,18.70
2018-05-18T16:24:44.870Z,18.70
2018-05-18T16:27:20.123Z,18.70
2018-05-18T16:29:54.325Z,18.70
2018-05-18T16:32:28.573Z,18.60
2018-05-18T16:35:02.789Z,18.50
2018-05-18T16:37:37.031Z,18.40
2018-05-18T16:40:11.892Z,18.40
2018-05-18T16:42:46.334Z,18.40
2018-05-18T16:45:21.328Z,18.10
2018-05-18T16:47:55.577Z,18.10
2018-05-18T16:50:30.568Z,18.10
2018-05-18T16:53:04.809Z,18.10
2018-05-18T16:55:39.055Z,18.10
2018-05-18T16:58:13.460Z,18.10
2018-05-18T17:00:48.434Z,17.90
2018-05-18T17:03:23.676Z,17.90
2018-05-18T17:05:57.884Z,17.90
2018-05-18T17:08:33.104Z,17.80
2018-05-18T17:11:07.315Z,17.80
2018-05-18T17:13:41.565Z,17.80
2018-05-18T17:16:16.768Z,17.70
2018-05-18T17:18:51.974Z,17.70
2018-05-18T17:21:26.956Z,17.60
2018-05-18T17:24:01.211Z,17.60
2018-05-18T17:26:35.416Z,17.60
2018-05-18T17:29:09.663Z,17.40
2018-05-18T17:31:44.636Z,17.30
2018-05-18T17:34:18.876Z,17.30
2018-05-18T17:36:53.094Z,17.20
2018-05-18T17:39:28.317Z,17.20
2018-05-18T17:42:02.533Z,17.10
2018-05-18T17:44:36.785Z,17.00
2018-05-18T17:47:11.758Z,17.00
2018-05-18T17:49:46.005Z,17.00
2018-05-18T17:52:19.887Z,17.00
2018-05-18T17:54:55.123Z,16.90
2018-05-18T17:57:30.276Z,16.80
2018-05-18T18:00:03.843Z,16.80
2018-05-18T18:02:38.059Z,16.70
2018-05-18T18:05:12.306Z,16.70
2018-05-18T18:07:46.576Z,16.60
2018-05-18T18:10:21.935Z,16.50
2018-05-18T18:12:56.148Z,16.50
2018-05-18T18:15:30.399Z,16.50
2018-05-18T18:18:04.611Z,16.40
2018-05-18T18:20:39.817Z,16.30
2018-05-18T18:23:14.032Z,16.20
2018-05-18T18:25:49.265Z,16.10
2018-05-18T18:28:23.494Z,16.00
2018-05-18T18:30:57.782Z,15.90
2018-05-18T18:33:31.429Z,15.70
2018-05-18T18:36:04.796Z,15.60
2018-05-18T18:38:40.198Z,15.50
2018-05-18T18:41:16.181Z,15.40
2018-05-18T18:43:51.334Z,15.40
2018-05-18T18:46:25.565Z,15.40
2018-05-18T18:48:59.236Z,15.40
2018-05-18T18:51:34.426Z,15.30
2018-05-18T18:54:08.132Z,15.20
2018-05-18T18:56:41.941Z,15.20
2018-05-18T18:59:16.909Z,15.00
2018-05-18T19:01:50.599Z,15.00
2018-05-18T19:04:24.240Z,14.90
2018-05-18T19:06:57.922Z,14.80
2018-05-18T19:09:32.329Z,14.60
2018-05-18T19:12:06.017Z,14.60
2018-05-18T19:14:39.655Z,14.50
2018-05-18T19:17:14.105Z,14.40
2018-05-18T19:19:47.744Z,14.40
2018-05-18T19:22:21.426Z,14.30
2018-05-18T19:24:56.053Z,14.30
2018-05-18T19:27:29.741Z,14.30
2018-05-18T19:30:03.873Z,14.20
2018-05-18T19:32:37.559Z,14.10
2018-05-18T19:35:12.166Z,14.10
2018-05-18T19:37:46.830Z,14.00
2018-05-18T19:40:20.483Z,14.00
2018-05-18T19:42:54.188Z,14.00
2018-05-18T19:45:28.808Z,13.90
2018-05-18T19:48:02.488Z,13.90
2018-05-18T19:50:36.125Z,13.90
2018-05-18T19:53:09.844Z,13.90
2018-05-18T19:55:44.461Z,13.90
2018-05-18T19:58:18.172Z,13.90
2018-05-18T20:00:51.814Z,13.80
2018-05-18T20:03:27.299Z,13.80
2018-05-18T20:06:02.823Z,13.90
2018-05-18T20:08:36.508Z,13.80
2018-05-18T20:11:11.888Z,13.90
2018-05-18T20:13:46.552Z,13.90
2018-05-18T20:16:20.212Z,13.80
2018-05-18T20:18:54.159Z,13.90
2018-05-18T20:21:27.796Z,13.90
2018-05-18T20:24:01.474Z,13.90
2018-05-18T20:26:35.881Z,13.90
2018-05-18T20:29:09.557Z,13.90
2018-05-18T20:31:43.197Z,13.90
2018-05-18T20:34:17.638Z,13.90
2018-05-18T20:36:52.239Z,13.90
2018-05-18T20:39:27.649Z,13.90
2018-05-18T20:42:01.302Z,13.90
2018-05-18T20:44:35.968Z,13.90
2018-05-18T20:47:09.610Z,13.90
2018-05-18T20:49:43.288Z,13.90
2018-05-18T20:52:17.896Z,13.90
2018-05-18T20:54:52.541Z,13.90
2018-05-18T20:57:26.183Z,13.90
2018-05-18T21:00:00.853Z,13.90
2018-05-18T21:02:35.470Z,13.90
2018-05-18T21:05:09.147Z,13.90
2018-05-18T21:07:42.789Z,13.90
2018-05-18T21:10:16.459Z,13.90
2018-05-18T21:12:50.096Z,13.90
2018-05-18T21:15:24.732Z,13.90
2018-05-18T21:17:59.137Z,13.90
2018-05-18T21:20:32.845Z,13.90
2018-05-18T21:23:07.244Z,13.90
2018-05-18T21:25:40.923Z,13.80
2018-05-18T21:28:14.554Z,13.80
2018-05-18T21:30:48.232Z,13.80
2018-05-18T21:33:22.865Z,13.80
2018-05-18T21:35:57.212Z,13.80
2018-05-18T21:38:31.615Z,13.80
2018-05-18T21:41:05.313Z,13.80
2018-05-18T21:43:38.946Z,13.80
2018-05-18T21:46:13.586Z,13.80
2018-05-18T21:48:47.224Z,13.70
2018-05-18T21:51:20.905Z,13.80
2018-05-18T21:53:54.540Z,13.70
2018-05-18T21:56:28.219Z,13.70
2018-05-18T21:59:01.854Z,13.60
2018-05-18T22:01:36.299Z,13.60
2018-05-18T22:04:10.936Z,13.60
2018-05-18T22:06:44.613Z,13.60
2018-05-18T22:09:18.253Z,13.60
2018-05-18T22:11:51.920Z,13.60
2018-05-18T22:14:25.557Z,13.60
2018-05-18T22:16:59.239Z,13.60
2018-05-18T22:19:32.888Z,13.60
2018-05-18T22:22:06.576Z,13.60
2018-05-18T22:24:40.217Z,13.60
2018-05-18T22:27:15.624Z,13.60
2018-05-18T22:29:49.264Z,13.60
2018-05-18T22:32:22.945Z,13.60
2018-05-18T22:34:57.372Z,13.60
2018-05-18T22:37:31.838Z,13.60
2018-05-18T22:40:05.473Z,13.60
2018-05-18T22:42:39.161Z,13.60
2018-05-18T22:45:12.804Z,13.60
2018-05-18T22:47:46.479Z,13.60
2018-05-18T22:50:20.116Z,13.60
2018-05-18T22:52:53.799Z,13.60
2018-05-18T22:55:28.198Z,13.50
2018-05-18T22:58:02.854Z,13.50
2018-05-18T23:00:37.452Z,13.50
2018-05-18T23:03:11.910Z,13.50
2018-05-18T23:05:45.552Z,13.50
2018-05-18T23:08:19.250Z,13.50
2018-05-18T23:10:52.901Z,13.50
2018-05-18T23:13:26.772Z,13.50
2018-05-18T23:16:00.419Z,13.50
2018-05-18T23:18:50.411Z,13.50
2018-05-18T23:21:25.023Z,13.50
2018-05-18T23:24:00.043Z,13.40
2018-05-18T23:26:35.085Z,13.40
2018-05-18T23:29:08.780Z,13.40
2018-05-18T23:31:42.108Z,13.40
2018-05-18T23:34:17.616Z,13.30
2018-05-18T23:36:51.265Z,13.30
2018-05-18T23:39:26.489Z,13.30
2018-05-18T23:42:02.564Z,13.30
2018-05-18T23:44:39.912Z,13.30
2018-05-18T23:47:15.084Z,13.20
2018-05-18T23:49:48.765Z,13.20
2018-05-18T23:52:22.406Z,13.20
2018-05-18T23:54:57.166Z,13.20
2018-05-18T23:57:35.579Z,13.20
